Time;durP1;ratioP1;P1;durP2;ratioP2;P2;SDS_P1;SDS_P2;PMS_P1;PMS_P2;Temp;Humidity;BMP_temperature;BMP_pressure;BME280_temperature;BME280_humidity;BME280_pressure;Samples;Min_cycle;Max_cycle;Signal;HPM_P1;HPM_P2
2023/03/12 00:01:16;;;;;;;9.32;4.97;;;;;;;;;;6302857;22;20464;-80
2023/03/12 00:03:42;;;;;;;10.23;4.93;;;;;;;;;;6301258;22;20030;-80
2023/03/12 00:06:09;;;;;;;12.40;4.75;;;;;;;;;;6303174;22;20016;-80
2023/03/12 00:08:36;;;;;;;10.60;5.00;;;;;;;;;;6301662;22;20019;-81
2023/03/12 00:11:09;;;;;;;13.40;5.43;;;;;;;;;;6302620;22;20022;-80
2023/03/12 00:13:36;;;;;;;10.10;4.70;;;;;;;;;;6273292;22;20365;-81
2023/03/12 00:16:10;;;;;;;13.45;5.30;;;;;;;;;;6303760;22;20045;-80
2023/03/12 00:18:37;;;;;;;10.82;4.60;;;;;;;;;;6302365;22;20028;-81
2023/03/12 00:21:04;;;;;;;9.27;4.63;;;;;;;;;;6300803;22;20528;-82
2023/03/12 00:23:30;;;;;;;12.90;5.00;;;;;;;;;;6301223;22;20039;-81
2023/03/12 00:26:04;;;;;;;13.23;4.93;;;;;;;;;;6300986;22;21248;-81
2023/03/12 00:28:30;;;;;;;12.02;4.93;;;;;;;;;;6301432;22;20117;-80
2023/03/12 00:30:57;;;;;;;9.70;4.32;;;;;;;;;;6301295;22;20022;-81
2023/03/12 00:33:24;;;;;;;10.18;4.47;;;;;;;;;;6300964;22;20494;-80
2023/03/12 00:35:51;;;;;;;10.77;4.75;;;;;;;;;;6299770;22;20500;-81
2023/03/12 00:38:17;;;;;;;16.98;5.00;;;;;;;;;;6300235;22;20932;-81
2023/03/12 00:40:43;;;;;;;9.05;4.68;;;;;;;;;;6301037;22;20023;-81
2023/03/12 00:43:10;;;;;;;9.75;4.60;;;;;;;;;;6301276;22;20023;-80
2023/03/12 00:45:36;;;;;;;10.57;4.93;;;;;;;;;;6301946;22;20034;-81
2023/03/12 00:48:03;;;;;;;9.77;4.88;;;;;;;;;;6301232;22;20169;-82
2023/03/12 00:50:29;;;;;;;11.55;5.35;;;;;;;;;;6303903;22;20027;-82
2023/03/12 00:52:56;;;;;;;14.00;5.05;;;;;;;;;;6301913;22;20035;-82
2023/03/12 00:55:22;;;;;;;11.00;4.82;;;;;;;;;;6304150;22;20109;-81
2023/03/12 00:57:48;;;;;;;10.40;5.07;;;;;;;;;;6304062;22;20035;-82
2023/03/12 01:00:15;;;;;;;8.88;4.53;;;;;;;;;;6304152;22;20042;-81
2023/03/12 01:02:42;;;;;;;8.40;4.20;;;;;;;;;;6303959;22;20716;-82
2023/03/12 01:05:10;;;;;;;12.18;4.15;;;;;;;;;;6304366;22;20004;-81
2023/03/12 01:07:36;;;;;;;9.93;4.40;;;;;;;;;;6305992;22;20027;-81
2023/03/12 01:10:03;;;;;;;12.00;4.50;;;;;;;;;;6305694;22;20028;-81
2023/03/12 01:12:29;;;;;;;7.82;4.07;;;;;;;;;;6305021;22;20081;-81
2023/03/12 01:14:56;;;;;;;10.77;3.83;;;;;;;;;;6303487;22;20028;-82
2023/03/12 01:17:22;;;;;;;8.00;3.80;;;;;;;;;;6304249;22;20028;-82
2023/03/12 01:19:48;;;;;;;11.52;3.72;;;;;;;;;;6304528;22;20074;-81
2023/03/12 01:22:15;;;;;;;8.75;3.80;;;;;;;;;;6275986;22;20970;-82
2023/03/12 01:24:41;;;;;;;10.95;3.85;;;;;;;;;;6302561;22;20028;-81
2023/03/12 01:27:08;;;;;;;9.45;4.15;;;;;;;;;;6276870;22;20022;-82
2023/03/12 01:29:34;;;;;;;13.63;4.00;;;;;;;;;;6302260;22;20091;-82
2023/03/12 01:32:01;;;;;;;13.00;4.07;;;;;;;;;;6275378;22;20076;-80
2023/03/12 01:34:27;;;;;;;9.38;3.75;;;;;;;;;;6301100;22;20042;-81
2023/03/12 01:36:54;;;;;;;7.72;3.58;;;;;;;;;;6302565;22;20019;-81
2023/03/12 01:39:20;;;;;;;10.20;4.50;;;;;;;;;;6300998;22;20855;-81
2023/03/12 01:41:47;;;;;;;8.55;3.90;;;;;;;;;;6274899;22;20019;-81
2023/03/12 01:44:13;;;;;;;10.00;4.53;;;;;;;;;;6301261;22;20507;-81
2023/03/12 01:46:42;;;;;;;8.82;4.07;;;;;;;;;;6301632;22;20773;-81
2023/03/12 01:49:23;;;;;;;9.80;4.82;;;;;;;;;;6302095;22;20106;-81
2023/03/12 01:51:50;;;;;;;13.77;4.15;;;;;;;;;;6300833;22;20012;-81
2023/03/12 01:54:22;;;;;;;8.80;4.20;;;;;;;;;;6273501;22;20020;-81
2023/03/12 01:56:48;;;;;;;7.68;4.03;;;;;;;;;;6302066;22;20028;-81
2023/03/12 01:59:23;;;;;;;10.10;4.72;;;;;;;;;;6274404;22;20034;-81
2023/03/12 02:01:50;;;;;;;12.75;4.40;;;;;;;;;;6301611;22;20042;-81
2023/03/12 02:04:17;;;;;;;9.63;3.92;;;;;;;;;;6300582;22;20123;-81
2023/03/12 02:07:03;;;;;;;10.18;4.22;;;;;;;;;;6300869;22;20024;-80
2023/03/12 02:09:34;;;;;;;11.40;4.38;;;;;;;;;;6303233;22;20024;-81
2023/03/12 02:12:00;;;;;;;;;;;;;;;;;;6303656;22;20016;-81
2023/03/12 02:14:27;;;;;;;10.55;4.38;;;;;;;;;;6300652;22;44778;-82
2023/03/12 02:16:54;;;;;;;9.60;4.00;;;;;;;;;;6303323;22;20111;-81
2023/03/12 02:19:33;;;;;;;11.77;4.72;;;;;;;;;;6302460;22;20067;-82
2023/03/12 02:21:59;;;;;;;10.85;3.95;;;;;;;;;;6275308;22;20075;-81
2023/03/12 02:24:44;;;;;;;11.35;4.22;;;;;;;;;;6302134;22;20023;-81
2023/03/12 02:27:11;;;;;;;8.68;4.03;;;;;;;;;;6303607;22;20046;-81
2023/03/12 02:29:39;;;;;;;9.02;4.20;;;;;;;;;;6303051;22;20082;-82
2023/03/12 02:32:07;;;;;;;10.38;3.55;;;;;;;;;;6302408;22;20024;-82
2023/03/12 02:34:34;;;;;;;9.65;3.45;;;;;;;;;;6302207;22;20024;-82
2023/03/12 02:37:01;;;;;;;7.97;3.58;;;;;;;;;;6303266;22;20093;-81
2023/03/12 02:39:27;;;;;;;8.50;3.42;;;;;;;;;;6302926;22;20107;-81
2023/03/12 02:41:56;;;;;;;7.95;3.25;;;;;;;;;;6302576;22;20030;-80
2023/03/12 02:44:24;;;;;;;11.93;3.97;;;;;;;;;;6300496;22;20020;-81
2023/03/12 02:46:52;;;;;;;8.48;3.38;;;;;;;;;;6274891;22;20055;-81
2023/03/12 02:49:19;;;;;;;8.65;2.92;;;;;;;;;;6301593;22;20035;-80
2023/03/12 02:51:46;;;;;;;7.18;3.63;;;;;;;;;;6302914;22;20050;-80
2023/03/12 02:54:13;;;;;;;8.20;3.10;;;;;;;;;;6272646;22;20019;-81
2023/03/12 02:56:40;;;;;;;7.70;3.20;;;;;;;;;;6301204;22;20030;-81
2023/03/12 02:59:07;;;;;;;7.30;2.83;;;;;;;;;;6274400;22;20028;-80
2023/03/12 03:01:34;;;;;;;5.78;3.00;;;;;;;;;;6303076;22;20822;-80
2023/03/12 03:04:01;;;;;;;7.85;3.30;;;;;;;;;;6303183;22;20027;-80
2023/03/12 03:06:28;;;;;;;9.63;3.10;;;;;;;;;;6303681;22;20027;-81
2023/03/12 03:08:54;;;;;;;8.50;3.38;;;;;;;;;;6303756;22;20025;-79
2023/03/12 03:11:23;;;;;;;11.95;3.33;;;;;;;;;;6302920;22;20034;-80
2023/03/12 03:13:50;;;;;;;7.97;3.35;;;;;;;;;;6273740;22;20027;-81
2023/03/12 03:16:16;;;;;;;11.13;3.88;;;;;;;;;;6303966;22;20023;-80
2023/03/12 03:18:43;;;;;;;8.23;3.30;;;;;;;;;;6303585;22;20030;-81
2023/03/12 03:21:15;;;;;;;7.82;3.17;;;;;;;;;;6303227;22;20019;-80
2023/03/12 03:23:46;;;;;;;8.90;3.15;;;;;;;;;;6275481;22;20016;-81
2023/03/12 03:26:12;;;;;;;6.00;3.05;;;;;;;;;;6302902;22;20229;-81
2023/03/12 03:28:39;;;;;;;7.22;3.00;;;;;;;;;;6303517;22;20158;-81
2023/03/12 03:31:05;;;;;;;8.50;2.88;;;;;;;;;;6302968;22;20032;-79
2023/03/12 03:33:33;;;;;;;7.25;2.70;;;;;;;;;;6273105;22;20101;-81
2023/03/12 03:36:00;;;;;;;5.70;3.03;;;;;;;;;;6300820;22;20016;-81
2023/03/12 03:38:28;;;;;;;7.80;2.75;;;;;;;;;;6302633;22;20012;-82
2023/03/12 03:40:55;;;;;;;9.15;2.78;;;;;;;;;;6303182;22;20098;-81
2023/03/12 03:43:21;;;;;;;5.93;2.67;;;;;;;;;;6274246;22;20020;-82
2023/03/12 03:45:48;;;;;;;6.63;2.72;;;;;;;;;;6303584;22;20012;-80
2023/03/12 03:48:14;;;;;;;7.45;2.47;;;;;;;;;;6274605;22;20019;-81
2023/03/12 03:50:41;;;;;;;7.22;2.75;;;;;;;;;;6303083;22;20028;-81
2023/03/12 03:53:08;;;;;;;8.98;2.70;;;;;;;;;;6302965;22;20614;-81
2023/03/12 03:55:35;;;;;;;9.27;2.95;;;;;;;;;;6302769;22;20030;-81
2023/03/12 03:58:01;;;;;;;5.95;2.95;;;;;;;;;;6303604;22;20111;-79
2023/03/12 04:00:28;;;;;;;6.70;2.75;;;;;;;;;;6302614;22;20047;-80
2023/03/12 04:02:54;;;;;;;10.55;2.42;;;;;;;;;;6300171;22;20178;-80
2023/03/12 04:05:21;;;;;;;6.18;2.60;;;;;;;;;;6275475;22;20074;-80
2023/03/12 04:07:47;;;;;;;8.38;2.97;;;;;;;;;;6275344;22;20839;-81
2023/03/12 04:10:14;;;;;;;7.13;3.08;;;;;;;;;;6302646;22;20028;-80
2023/03/12 04:12:40;;;;;;;8.90;3.58;;;;;;;;;;6302481;22;20034;-81
2023/03/12 04:15:06;;;;;;;7.90;3.08;;;;;;;;;;6302358;22;20785;-80
2023/03/12 04:17:33;;;;;;;10.40;3.00;;;;;;;;;;6301932;22;20036;-80
2023/03/12 04:19:59;;;;;;;8.15;2.90;;;;;;;;;;6301552;22;20082;-80
2023/03/12 04:22:26;;;;;;;8.18;3.13;;;;;;;;;;6302847;22;20047;-81
2023/03/12 04:24:52;;;;;;;8.27;2.92;;;;;;;;;;6301196;22;20035;-81
2023/03/12 04:27:19;;;;;;;6.45;2.92;;;;;;;;;;6303233;22;20048;-81
2023/03/12 04:29:45;;;;;;;7.22;3.28;;;;;;;;;;6301458;22;20392;-80
2023/03/12 04:32:11;;;;;;;6.95;3.47;;;;;;;;;;6301413;22;20443;-80
2023/03/12 04:34:38;;;;;;;8.93;3.42;;;;;;;;;;6299243;22;20028;-84
2023/03/12 04:37:04;;;;;;;7.03;3.40;;;;;;;;;;6302381;22;20032;-83
2023/03/12 04:39:30;;;;;;;7.03;3.47;;;;;;;;;;6275604;22;20053;-81
2023/03/12 04:41:57;;;;;;;9.65;3.53;;;;;;;;;;6302611;22;20034;-80
2023/03/12 04:44:23;;;;;;;7.03;3.75;;;;;;;;;;6301065;22;20028;-80
2023/03/12 04:46:49;;;;;;;7.50;3.80;;;;;;;;;;6273836;22;20028;-80
2023/03/12 04:49:16;;;;;;;7.97;3.95;;;;;;;;;;6301785;22;20082;-80
2023/03/12 04:51:42;;;;;;;9.55;3.90;;;;;;;;;;6302000;22;20039;-80
2023/03/12 04:54:09;;;;;;;9.45;4.00;;;;;;;;;;6301395;22;20028;-80
2023/03/12 04:56:35;;;;;;;7.55;3.90;;;;;;;;;;6303092;22;20034;-80
2023/03/12 04:59:01;;;;;;;8.82;4.13;;;;;;;;;;6301922;22;20028;-79
2023/03/12 05:01:30;;;;;;;7.63;3.78;;;;;;;;;;6301607;22;20032;-80
2023/03/12 05:03:56;;;;;;;11.90;4.50;;;;;;;;;;6299945;22;20032;-80
2023/03/12 05:06:23;;;;;;;9.60;4.38;;;;;;;;;;6302409;22;20030;-79
2023/03/12 05:08:50;;;;;;;10.90;4.55;;;;;;;;;;6301872;22;20023;-80
2023/03/12 05:11:17;;;;;;;8.80;4.03;;;;;;;;;;6301565;22;20034;-80
2023/03/12 05:13:43;;;;;;;10.25;4.50;;;;;;;;;;6300456;22;20030;-79
2023/03/12 05:16:10;;;;;;;13.07;4.63;;;;;;;;;;6301476;22;20023;-80
2023/03/12 05:18:37;;;;;;;9.55;4.45;;;;;;;;;;6274533;22;20030;-81
2023/03/12 05:21:05;;;;;;;10.07;4.38;;;;;;;;;;6300369;22;20024;-80
2023/03/12 05:23:32;;;;;;;11.45;4.45;;;;;;;;;;6299605;22;20116;-79
2023/03/12 05:25:58;;;;;;;10.95;4.30;;;;;;;;;;6301289;22;20020;-80
2023/03/12 05:28:27;;;;;;;8.40;4.10;;;;;;;;;;6300467;22;20023;-80
2023/03/12 05:30:54;;;;;;;8.75;4.38;;;;;;;;;;6273123;22;20939;-80
2023/03/12 05:33:21;;;;;;;9.25;4.63;;;;;;;;;;6299682;22;20066;-80
2023/03/12 05:35:47;;;;;;;9.80;4.20;;;;;;;;;;6301171;22;20019;-80
2023/03/12 05:38:13;;;;;;;7.22;3.88;;;;;;;;;;6301337;22;20890;-79
2023/03/12 05:40:40;;;;;;;8.45;4.00;;;;;;;;;;6301536;22;20023;-80
2023/03/12 05:43:06;;;;;;;13.80;4.32;;;;;;;;;;6299569;22;20034;-79
2023/03/12 05:45:32;;;;;;;11.52;4.22;;;;;;;;;;6301826;22;20024;-79
2023/03/12 05:47:59;;;;;;;10.13;3.67;;;;;;;;;;6301232;22;20109;-79
2023/03/12 05:50:25;;;;;;;10.60;3.70;;;;;;;;;;6301094;22;20027;-79
2023/03/12 05:52:52;;;;;;;9.90;4.28;;;;;;;;;;6300673;22;20048;-79
2023/03/12 05:55:18;;;;;;;8.93;3.63;;;;;;;;;;6274248;22;20405;-79
2023/03/12 05:57:45;;;;;;;8.73;4.07;;;;;;;;;;6300474;22;21052;-79
2023/03/12 06:00:12;;;;;;;9.10;3.55;;;;;;;;;;6301295;22;20031;-79
2023/03/12 06:02:39;;;;;;;11.38;4.35;;;;;;;;;;6301201;22;20132;-79
2023/03/12 06:05:05;;;;;;;11.02;4.20;;;;;;;;;;6300209;22;20110;-79
2023/03/12 06:07:32;;;;;;;9.85;4.00;;;;;;;;;;6275551;22;20101;-79
2023/03/12 06:09:58;;;;;;;11.50;3.85;;;;;;;;;;6301996;22;20078;-79
2023/03/12 06:12:25;;;;;;;9.73;3.80;;;;;;;;;;6300763;22;20020;-79
2023/03/12 06:14:51;;;;;;;11.40;4.72;;;;;;;;;;6299139;22;20020;-80
2023/03/12 06:17:17;;;;;;;15.05;5.18;;;;;;;;;;6300595;22;20059;-80
2023/03/12 06:19:44;;;;;;;11.57;4.93;;;;;;;;;;6300226;22;20063;-80
2023/03/12 06:22:10;;;;;;;6.70;3.90;;;;;;;;;;6300868;22;20107;-80
2023/03/12 06:24:36;;;;;;;8.05;4.47;;;;;;;;;;6299700;22;20019;-80
2023/03/12 06:27:04;;;;;;;9.57;4.60;;;;;;;;;;6273717;22;20020;-80
2023/03/12 06:29:30;;;;;;;8.32;4.57;;;;;;;;;;6301185;22;20027;-80
2023/03/12 06:31:56;;;;;;;12.57;4.75;;;;;;;;;;6301114;22;20027;-80
2023/03/12 06:34:23;;;;;;;9.60;4.40;;;;;;;;;;6300031;22;20024;-80
2023/03/12 06:36:49;;;;;;;12.65;5.07;;;;;;;;;;6301251;22;20034;-80
2023/03/12 06:39:17;;;;;;;10.65;4.95;;;;;;;;;;6274550;22;20023;-83
2023/03/12 06:41:43;;;;;;;13.18;5.65;;;;;;;;;;6275697;22;20027;-83
2023/03/12 06:44:10;;;;;;;11.50;5.32;;;;;;;;;;6302067;22;20020;-83
2023/03/12 06:46:37;;;;;;;15.70;5.25;;;;;;;;;;6303411;22;20028;-82
2023/03/12 06:49:03;;;;;;;16.35;5.93;;;;;;;;;;6301592;22;20065;-82
2023/03/12 06:51:29;;;;;;;9.88;5.00;;;;;;;;;;6302515;22;20043;-82
2023/03/12 06:53:56;;;;;;;11.80;5.15;;;;;;;;;;6300929;22;20024;-82
2023/03/12 06:56:22;;;;;;;15.68;5.93;;;;;;;;;;6277205;22;20031;-83
2023/03/12 06:58:49;;;;;;;14.23;5.40;;;;;;;;;;6303033;22;20030;-82
2023/03/12 07:01:15;;;;;;;15.73;6.90;;;;;;;;;;6300456;22;20090;-82
2023/03/12 07:03:42;;;;;;;13.27;6.85;;;;;;;;;;6300460;22;20008;-82
2023/03/12 07:06:16;;;;;;;15.73;6.03;;;;;;;;;;6302553;22;20050;-82
2023/03/12 07:08:43;;;;;;;12.98;6.07;;;;;;;;;;6301956;22;20098;-82
2023/03/12 07:11:09;;;;;;;12.35;5.55;;;;;;;;;;6302000;22;20027;-82
2023/03/12 07:13:35;;;;;;;15.65;5.80;;;;;;;;;;6274854;22;20863;-82
2023/03/12 07:16:02;;;;;;;17.85;6.28;;;;;;;;;;6301719;22;20027;-82
2023/03/12 07:18:29;;;;;;;16.77;5.80;;;;;;;;;;6302074;22;20023;-82
2023/03/12 07:20:55;;;;;;;13.75;5.88;;;;;;;;;;6303082;22;20114;-82
2023/03/12 07:23:22;;;;;;;15.60;5.95;;;;;;;;;;6301199;22;20106;-82
2023/03/12 07:25:48;;;;;;;17.90;6.72;;;;;;;;;;6302791;22;20027;-81
2023/03/12 07:28:16;;;;;;;13.68;6.80;;;;;;;;;;6301718;22;20350;-80
2023/03/12 07:30:42;;;;;;;14.10;6.65;;;;;;;;;;6301314;22;20073;-80
2023/03/12 07:33:10;;;;;;;15.70;6.85;;;;;;;;;;6301745;22;20027;-80
2023/03/12 07:35:37;;;;;;;15.82;7.57;;;;;;;;;;6301070;22;20035;-82
2023/03/12 07:38:04;;;;;;;21.70;7.55;;;;;;;;;;6299960;22;20024;-82
2023/03/12 07:40:31;;;;;;;16.95;7.30;;;;;;;;;;6301268;22;20023;-82
2023/03/12 07:42:57;;;;;;;13.07;6.63;;;;;;;;;;6300391;22;20054;-82
2023/03/12 07:45:24;;;;;;;15.60;6.97;;;;;;;;;;6299789;22;20469;-83
2023/03/12 07:47:50;;;;;;;16.90;6.85;;;;;;;;;;6301702;22;20059;-82
2023/03/12 07:50:17;;;;;;;16.67;7.60;;;;;;;;;;6272720;22;20026;-82
2023/03/12 07:52:44;;;;;;;15.65;6.95;;;;;;;;;;6299518;22;20543;-82
2023/03/12 07:55:10;;;;;;;15.82;7.18;;;;;;;;;;6271858;22;20024;-82
2023/03/12 07:57:37;;;;;;;22.85;7.72;;;;;;;;;;6271081;22;20020;-82
2023/03/12 08:00:07;;;;;;;14.80;7.05;;;;;;;;;;6244836;22;20054;-81
2023/03/12 08:02:34;;;;;;;12.57;6.88;;;;;;;;;;6242480;22;20552;-79
2023/03/12 08:05:00;;;;;;;15.77;6.78;;;;;;;;;;6264523;22;20043;-80
2023/03/12 08:07:31;;;;;;;18.73;8.05;;;;;;;;;;6271734;22;20091;-79
2023/03/12 08:09:58;;;;;;;17.27;7.80;;;;;;;;;;6273354;22;20039;-84
2023/03/12 08:12:24;;;;;;;18.05;7.70;;;;;;;;;;6301442;22;20042;-80
2023/03/12 08:14:50;;;;;;;22.23;9.20;;;;;;;;;;6298329;22;20031;-82
2023/03/12 08:17:17;;;;;;;16.58;7.90;;;;;;;;;;6299430;22;20050;-82
2023/03/12 08:19:43;;;;;;;19.40;8.60;;;;;;;;;;6299750;22;20015;-83
2023/03/12 08:22:10;;;;;;;20.75;8.68;;;;;;;;;;6270962;22;20028;-81
2023/03/12 08:24:36;;;;;;;20.15;8.27;;;;;;;;;;6298275;22;20011;-82
2023/03/12 08:27:02;;;;;;;17.02;8.77;;;;;;;;;;6300142;22;20460;-82
2023/03/12 08:29:29;;;;;;;17.38;7.93;;;;;;;;;;6299385;22;20129;-82
2023/03/12 08:31:55;;;;;;;24.45;8.65;;;;;;;;;;6299683;22;20051;-82
2023/03/12 08:34:30;;;;;;;20.77;10.25;;;;;;;;;;6299206;22;20043;-79
2023/03/12 08:36:57;;;;;;;17.08;8.70;;;;;;;;;;6300284;22;20020;-80
2023/03/12 08:39:23;;;;;;;19.75;9.32;;;;;;;;;;6298673;22;20459;-79
2023/03/12 08:41:54;;;;;;;20.55;9.63;;;;;;;;;;6301153;22;20104;-81
2023/03/12 08:44:21;;;;;;;23.33;9.18;;;;;;;;;;6299694;22;20024;-80
2023/03/12 08:46:50;;;;;;;32.33;11.13;;;;;;;;;;6301146;22;20111;-78
2023/03/12 08:49:16;;;;;;;22.95;9.93;;;;;;;;;;6274073;22;20069;-79
2023/03/12 08:51:43;;;;;;;20.15;9.90;;;;;;;;;;6299492;22;20030;-80
2023/03/12 08:54:09;;;;;;;20.70;9.70;;;;;;;;;;6298285;22;20795;-80
2023/03/12 08:56:42;;;;;;;20.52;10.05;;;;;;;;;;6298932;22;20024;-78
2023/03/12 08:59:11;;;;;;;22.63;9.85;;;;;;;;;;6299703;22;20047;-80
2023/03/12 09:01:38;;;;;;;26.27;11.07;;;;;;;;;;6299204;22;20047;-79
2023/03/12 09:04:08;;;;;;;29.00;12.30;;;;;;;;;;6298678;22;20233;-79
2023/03/12 09:06:35;;;;;;;24.77;11.85;;;;;;;;;;6300384;22;20101;-80
2023/03/12 09:09:04;;;;;;;24.02;11.15;;;;;;;;;;6272488;22;20874;-79
2023/03/12 09:11:31;;;;;;;25.92;11.70;;;;;;;;;;6300692;22;20073;-79
2023/03/12 09:13:58;;;;;;;29.42;12.10;;;;;;;;;;6301082;22;20031;-80
2023/03/12 09:16:44;;;;;;;27.80;12.43;;;;;;;;;;6301185;22;20413;-79
2023/03/12 09:19:11;;;;;;;29.17;12.88;;;;;;;;;;6302929;22;20067;-79
2023/03/12 09:21:38;;;;;;;35.20;12.88;;;;;;;;;;6301850;22;20027;-79
2023/03/12 09:24:06;;;;;;;36.05;13.82;;;;;;;;;;6273234;22;20026;-81
2023/03/12 09:26:32;;;;;;;31.80;12.43;;;;;;;;;;6302068;22;20030;-80
2023/03/12 09:28:59;;;;;;;31.83;13.85;;;;;;;;;;6299927;22;20056;-81
2023/03/12 09:31:25;;;;;;;30.55;12.60;;;;;;;;;;6274044;22;20030;-80
2023/03/12 09:33:52;;;;;;;33.00;13.32;;;;;;;;;;6271810;22;20019;-82
2023/03/12 09:36:18;;;;;;;33.53;13.00;;;;;;;;;;6299833;22;20051;-82
2023/03/12 09:38:44;;;;;;;31.60;13.20;;;;;;;;;;6301511;22;20054;-82
2023/03/12 09:41:30;;;;;;;36.10;14.25;;;;;;;;;;6301173;22;20495;-79
2023/03/12 09:44:00;;;;;;;34.90;14.32;;;;;;;;;;6272212;22;20083;-81
2023/03/12 09:46:31;;;;;;;34.78;15.07;;;;;;;;;;6299161;22;20820;-79
2023/03/12 09:49:00;;;;;;;41.80;17.98;;;;;;;;;;6299727;22;20476;-80
2023/03/12 09:51:37;;;;;;;45.08;18.33;;;;;;;;;;6273511;22;20028;-80
2023/03/12 09:54:06;;;;;;;47.13;18.33;;;;;;;;;;6298624;22;20095;-80
2023/03/12 09:56:33;;;;;;;49.20;17.80;;;;;;;;;;6300857;22;20071;-80
2023/03/12 09:59:00;;;;;;;48.22;18.23;;;;;;;;;;6298750;22;20023;-81
2023/03/12 10:01:32;;;;;;;42.90;16.95;;;;;;;;;;6299614;22;20220;-81
2023/03/12 10:04:04;;;;;;;42.95;17.80;;;;;;;;;;6299401;22;20138;-80
2023/03/12 10:06:34;;;;;;;49.85;18.25;;;;;;;;;;6299817;22;20015;-81
2023/03/12 10:09:19;;;;;;;49.58;17.80;;;;;;;;;;6301914;22;20118;-80
2023/03/12 10:11:46;;;;;;;48.85;19.65;;;;;;;;;;6277109;22;20030;-80
2023/03/12 10:14:31;;;;;;;48.10;18.25;;;;;;;;;;6304085;22;20046;-80
2023/03/12 10:17:16;;;;;;;49.28;17.88;;;;;;;;;;6301852;22;20027;-80
2023/03/12 10:19:55;;;;;;;40.30;17.67;;;;;;;;;;6303093;22;20107;-81
2023/03/12 10:22:22;;;;;;;40.97;16.65;;;;;;;;;;6303389;22;20828;-80
2023/03/12 10:25:07;;;;;;;54.85;18.38;;;;;;;;;;6274784;22;20024;-81
2023/03/12 10:27:35;;;;;;;50.70;17.90;;;;;;;;;;6302955;22;20086;-80
2023/03/12 10:30:02;;;;;;;45.42;18.30;;;;;;;;;;6275636;22;20030;-80
2023/03/12 10:32:37;;;;;;;50.53;18.17;;;;;;;;;;6275407;22;20905;-82
2023/03/12 10:35:18;;;;;;;50.10;19.65;;;;;;;;;;6300836;22;20019;-81
2023/03/12 10:37:47;;;;;;;47.45;17.65;;;;;;;;;;6302193;22;20024;-81
2023/03/12 10:40:15;;;;;;;55.60;19.98;;;;;;;;;;6301620;22;20019;-80
2023/03/12 10:42:41;;;;;;;51.55;19.20;;;;;;;;;;6306330;22;20038;-80
2023/03/12 10:45:08;;;;;;;50.58;18.95;;;;;;;;;;6287365;22;20071;-79
2023/03/12 10:47:34;;;;;;;53.75;19.90;;;;;;;;;;6311057;22;20019;-80
2023/03/12 10:50:18;;;;;;;46.33;19.13;;;;;;;;;;6282385;22;20106;-83
2023/03/12 10:52:46;;;;;;;48.55;18.65;;;;;;;;;;6281693;22;20019;-81
2023/03/12 10:55:15;;;;;;;55.92;23.15;;;;;;;;;;6306650;22;20028;-79
2023/03/12 10:57:41;;;;;;;47.03;20.10;;;;;;;;;;6308304;22;20023;-81
2023/03/12 11:00:11;;;;;;;41.47;18.90;;;;;;;;;;6306553;22;20019;-80
2023/03/12 11:02:40;;;;;;;40.30;18.30;;;;;;;;;;6278499;22;20019;-81
2023/03/12 11:05:18;;;;;;;41.85;17.08;;;;;;;;;;6304385;22;20034;-81
2023/03/12 11:07:45;;;;;;;50.92;18.55;;;;;;;;;;6308642;22;20046;-81
2023/03/12 11:10:13;;;;;;;47.13;21.00;;;;;;;;;;6305474;22;20030;-82
2023/03/12 11:12:50;;;;;;;47.85;19.05;;;;;;;;;;6305198;22;20023;-81
2023/03/12 11:15:23;;;;;;;48.20;18.17;;;;;;;;;;6305130;22;20016;-82
2023/03/12 11:17:50;;;;;;;43.80;16.23;;;;;;;;;;6305374;22;20028;-82
2023/03/12 11:20:18;;;;;;;45.78;17.30;;;;;;;;;;6305010;22;20094;-82
2023/03/12 11:22:44;;;;;;;43.92;19.27;;;;;;;;;;6304189;22;20024;-82
2023/03/12 11:25:20;;;;;;;46.70;16.70;;;;;;;;;;6275798;22;20022;-82
2023/03/12 11:27:50;;;;;;;46.90;16.77;;;;;;;;;;6306154;22;20063;-82
2023/03/12 11:30:19;;;;;;;40.60;15.83;;;;;;;;;;6308269;22;20545;-81
2023/03/12 11:32:46;;;;;;;37.92;14.05;;;;;;;;;;6308142;22;20223;-81
2023/03/12 11:35:14;;;;;;;45.53;14.45;;;;;;;;;;6312051;22;20012;-81
2023/03/12 11:37:47;;;;;;;36.20;12.65;;;;;;;;;;6309756;22;20075;-81
2023/03/12 11:40:13;;;;;;;38.25;13.13;;;;;;;;;;6308781;22;20062;-81
2023/03/12 11:42:51;;;;;;;41.53;12.50;;;;;;;;;;6308198;22;20035;-80
2023/03/12 11:45:17;;;;;;;37.03;11.30;;;;;;;;;;6306508;22;20023;-81
2023/03/12 11:47:44;;;;;;;31.17;11.43;;;;;;;;;;6280281;22;20016;-80
2023/03/12 11:50:35;;;;;;;38.72;13.20;;;;;;;;;;6279891;22;20552;-81
2023/03/12 11:53:08;;;;;;;35.90;11.68;;;;;;;;;;6305821;22;20024;-80
2023/03/12 11:56:00;;;;;;;33.45;10.80;;;;;;;;;;6307123;22;20023;-80
2023/03/12 11:58:46;;;;;;;34.50;9.75;;;;;;;;;;6302977;22;20023;-80
2023/03/12 12:01:31;;;;;;;31.20;11.05;;;;;;;;;;6280808;22;20024;-81
2023/03/12 12:04:17;;;;;;;31.27;10.00;;;;;;;;;;6307793;22;20015;-81
2023/03/12 12:07:02;;;;;;;32.85;9.93;;;;;;;;;;6261841;22;20028;-80
2023/03/12 12:09:29;;;;;;;29.80;10.00;;;;;;;;;;6305713;22;20420;-81
2023/03/12 12:11:55;;;;;;;32.10;9.93;;;;;;;;;;6277353;22;20440;-82
2023/03/12 12:14:31;;;;;;;26.35;9.27;;;;;;;;;;6275131;22;20412;-81
2023/03/12 12:17:17;;;;;;;33.55;9.98;;;;;;;;;;6304773;22;20008;-80
2023/03/12 12:20:08;;;;;;;36.40;9.80;;;;;;;;;;6305041;22;20408;-81
2023/03/12 12:22:41;;;;;;;29.58;7.70;;;;;;;;;;6306491;22;20028;-80
2023/03/12 12:25:24;;;;;;;30.80;8.30;;;;;;;;;;6305834;22;20028;-80
2023/03/12 12:28:10;;;;;;;30.42;8.35;;;;;;;;;;6276698;22;20037;-80
2023/03/12 12:30:45;;;;;;;29.95;9.05;;;;;;;;;;6306150;22;20024;-80
2023/03/12 12:33:14;;;;;;;29.65;8.00;;;;;;;;;;6303483;22;20487;-79
2023/03/12 12:35:41;;;;;;;34.38;8.68;;;;;;;;;;6277927;22;20028;-80
2023/03/12 12:38:29;;;;;;;29.90;8.23;;;;;;;;;;6276669;22;20023;-81
2023/03/12 12:41:15;;;;;;;38.95;10.02;;;;;;;;;;6304587;22;20030;-81
2023/03/12 12:43:49;;;;;;;40.40;9.55;;;;;;;;;;6304875;22;20959;-80
2023/03/12 12:46:17;;;;;;;32.50;9.32;;;;;;;;;;6303785;22;20068;-80
2023/03/12 12:48:59;;;;;;;33.17;8.20;;;;;;;;;;6277030;22;20225;-81
2023/03/12 12:51:29;;;;;;;32.28;7.28;;;;;;;;;;6277049;22;20026;-79
2023/03/12 12:54:06;;;;;;;30.75;7.88;;;;;;;;;;6301956;22;20020;-81
2023/03/12 12:56:52;;;;;;;28.35;7.85;;;;;;;;;;6276356;22;20105;-80
2023/03/12 12:59:23;;;;;;;26.98;6.97;;;;;;;;;;6301534;22;20011;-81
2023/03/12 13:01:51;;;;;;;39.35;6.57;;;;;;;;;;6302365;22;20026;-82
2023/03/12 13:04:29;;;;;;;33.33;7.40;;;;;;;;;;6303515;22;20107;-81
2023/03/12 13:07:22;;;;;;;30.63;7.05;;;;;;;;;;6274091;22;20016;-81
2023/03/12 13:09:51;;;;;;;35.78;6.85;;;;;;;;;;6302857;22;20174;-81
2023/03/12 13:12:20;;;;;;;34.42;6.57;;;;;;;;;;6304044;22;20055;-80
2023/03/12 13:14:47;;;;;;;31.58;6.65;;;;;;;;;;6276650;22;20532;-84
2023/03/12 13:17:26;;;;;;;24.77;6.85;;;;;;;;;;6305576;22;20028;-82
2023/03/12 13:20:13;;;;;;;35.05;7.40;;;;;;;;;;6305358;22;20024;-84
2023/03/12 13:22:47;;;;;;;36.65;7.30;;;;;;;;;;6304161;22;20107;-82
2023/03/12 13:25:32;;;;;;;29.10;6.22;;;;;;;;;;6303915;22;20035;-83
2023/03/12 13:28:00;;;;;;;28.23;5.97;;;;;;;;;;6303676;22;20019;-82
2023/03/12 13:30:32;;;;;;;33.00;6.15;;;;;;;;;;6305424;22;20027;-83
2023/03/12 13:33:01;;;;;;;30.85;6.43;;;;;;;;;;6302639;22;20020;-82
2023/03/12 13:35:34;;;;;;;33.38;6.45;;;;;;;;;;6304699;22;20031;-83
2023/03/12 13:38:03;;;;;;;28.52;6.75;;;;;;;;;;6307200;22;20031;-85
2023/03/12 13:40:48;;;;;;;34.90;5.55;;;;;;;;;;6277532;22;20011;-84
2023/03/12 13:43:29;;;;;;;42.95;5.45;;;;;;;;;;6303544;22;20019;-83
2023/03/12 13:46:05;;;;;;;24.65;4.75;;;;;;;;;;6304784;22;20023;-83
2023/03/12 13:48:33;;;;;;;30.20;5.53;;;;;;;;;;6279843;22;20023;-84
2023/03/12 13:51:18;;;;;;;27.73;4.97;;;;;;;;;;6305129;22;20027;-83
2023/03/12 13:53:52;;;;;;;37.67;7.22;;;;;;;;;;6304020;22;20503;-83
2023/03/12 13:56:20;;;;;;;35.63;9.82;;;;;;;;;;6303148;22;20091;-84
2023/03/12 13:58:46;;;;;;;34.20;8.52;;;;;;;;;;6301805;22;20059;-83
2023/03/12 14:01:15;;;;;;;35.80;5.82;;;;;;;;;;6304172;22;20028;-83
2023/03/12 14:03:44;;;;;;;28.30;4.80;;;;;;;;;;6276400;22;20424;-82
2023/03/12 14:06:17;;;;;;;27.25;5.55;;;;;;;;;;6277521;22;20007;-84
2023/03/12 14:08:52;;;;;;;29.83;5.47;;;;;;;;;;6306136;22;20015;-84
2023/03/12 14:11:39;;;;;;;25.02;4.40;;;;;;;;;;6303827;22;20055;-83
2023/03/12 14:14:15;;;;;;;24.65;4.15;;;;;;;;;;6270663;22;20016;-82
2023/03/12 14:16:44;;;;;;;21.55;4.03;;;;;;;;;;6277673;22;20019;-83
2023/03/12 14:19:12;;;;;;;22.70;3.97;;;;;;;;;;6277949;22;20010;-82
2023/03/12 14:21:40;;;;;;;25.38;4.93;;;;;;;;;;6305419;22;20107;-83
2023/03/12 14:24:07;;;;;;;25.05;4.70;;;;;;;;;;6299561;22;20039;-81
2023/03/12 14:26:35;;;;;;;19.08;4.20;;;;;;;;;;6303125;22;20099;-81
2023/03/12 14:29:05;;;;;;;27.55;4.60;;;;;;;;;;6302717;22;20093;-81
2023/03/12 14:31:32;;;;;;;22.63;4.15;;;;;;;;;;6306093;22;20491;-83
2023/03/12 14:34:04;;;;;;;26.75;5.65;;;;;;;;;;6304080;22;20023;-84
2023/03/12 14:36:39;;;;;;;25.80;5.85;;;;;;;;;;6304004;22;20023;-85
2023/03/12 14:39:25;;;;;;;20.15;3.95;;;;;;;;;;6277375;22;20028;-84
2023/03/12 14:41:59;;;;;;;26.42;3.67;;;;;;;;;;6307008;22;20055;-84
2023/03/12 14:44:27;;;;;;;25.15;3.92;;;;;;;;;;6278992;22;20020;-83